Meadowbrook, West Virginia
Current Conditions -  °F | °C
As of 7:53 PM on Monday 24 Nov 2014 (Local Time) from KCKB Reporting Station
Clear Clear  
Wind Chill: 58°   Ceiling: Unl
Heat Index: 58°   Visibility: 10mi
Dew Point: 34°   Wind: 7mph
Humidity: 41%   Direction: 250°WSW
Pressure: 29.74"   Gusts: NA
Location:  39.35°N, 80.31°W
Report Text: KCKB 250053Z 25006KT 10SM CLR 14/01 A2974 RMK AO2 SLP062 T01440011
Loading
Personal Weather Stations






























Interactive Weather Map New forecast layout! Learn more

10-Day Weather Forecast

Advertisements
Track Severe Weather on mobile